createdAt,value
2023-05-02T00:00:11.558Z,100701.72
2023-05-02T00:02:39.948Z,100691.53
2023-05-02T00:05:09.010Z,100697.09
2023-05-02T00:07:38.627Z,100698.28
2023-05-02T00:10:08.885Z,100694.47
2023-05-02T00:12:36.697Z,100693.91
2023-05-02T00:15:05.300Z,100691.44
2023-05-02T00:17:33.686Z,100693.66
2023-05-02T00:20:01.745Z,100698.38
2023-05-02T00:22:30.096Z,100694.34
2023-05-02T00:24:58.646Z,100693.00
2023-05-02T00:27:29.119Z,100692.84
2023-05-02T00:29:57.658Z,100689.25
2023-05-02T00:32:26.053Z,100694.16
2023-05-02T00:34:53.912Z,100692.25
2023-05-02T00:37:21.670Z,100691.25
2023-05-02T00:39:52.227Z,100687.47
2023-05-02T00:42:19.870Z,100681.38
2023-05-02T00:44:49.634Z,100687.19
2023-05-02T00:47:17.341Z,100677.03
2023-05-02T00:49:46.065Z,100690.78
2023-05-02T00:52:14.085Z,100685.63
2023-05-02T00:54:42.427Z,100691.44
2023-05-02T00:57:10.177Z,100687.56
2023-05-02T00:59:38.920Z,100702.03
2023-05-02T01:02:19.743Z,100711.03
2023-05-02T01:04:57.641Z,100706.25
2023-05-02T01:07:41.587Z,100723.09
2023-05-02T01:10:21.625Z,100717.16
2023-05-02T01:12:57.547Z,100721.16
2023-05-02T01:15:26.714Z,100732.03
2023-05-02T01:17:57.217Z,100735.19
2023-05-02T01:20:27.397Z,100729.31
2023-05-02T01:22:59.440Z,100733.56
2023-05-02T01:25:32.905Z,100730.44
2023-05-02T01:28:11.499Z,100737.00
2023-05-02T01:30:45.205Z,100727.53
2023-05-02T01:33:16.966Z,100731.31
2023-05-02T01:35:49.092Z,100732.69
2023-05-02T01:38:19.054Z,100741.97
2023-05-02T01:40:48.991Z,100739.81
2023-05-02T01:43:18.659Z,100737.06
2023-05-02T01:45:51.006Z,100746.88
2023-05-02T01:48:20.867Z,100754.72
2023-05-02T01:50:50.311Z,100753.88
2023-05-02T01:53:18.709Z,100752.47
2023-05-02T01:55:47.825Z,100747.56
2023-05-02T01:58:19.087Z,100753.84
2023-05-02T02:00:49.199Z,100756.34
2023-05-02T02:03:19.301Z,100754.19
2023-05-02T02:05:50.313Z,100753.59
2023-05-02T02:08:18.526Z,100746.53
2023-05-02T02:10:51.413Z,100750.53
2023-05-02T02:13:21.221Z,100755.84
2023-05-02T02:15:54.715Z,100757.47
2023-05-02T02:18:26.428Z,100750.63
2023-05-02T02:20:58.186Z,100750.94
2023-05-02T02:23:29.557Z,100750.97
2023-05-02T02:25:58.612Z,100760.34
2023-05-02T02:28:26.438Z,100767.31
2023-05-02T02:30:56.319Z,100765.94
2023-05-02T02:33:30.575Z,100764.91
2023-05-02T02:36:04.598Z,100765.44
2023-05-02T02:38:42.879Z,100777.84
2023-05-02T02:41:17.209Z,100789.94
2023-05-02T02:43:54.753Z,100795.50
2023-05-02T02:46:36.218Z,100794.75
2023-05-02T02:49:16.255Z,100787.97
2023-05-02T02:51:48.418Z,100795.13
2023-05-02T02:54:30.528Z,100795.03
2023-05-02T02:57:06.808Z,100804.09
2023-05-02T02:59:36.711Z,100809.91
2023-05-02T03:02:09.558Z,100809.56
2023-05-02T03:04:40.335Z,100814.28
2023-05-02T03:07:08.510Z,100816.28
2023-05-02T03:09:43.236Z,100824.09
2023-05-02T03:12:11.716Z,100829.63
2023-05-02T03:14:40.323Z,100821.03
2023-05-02T03:17:09.370Z,100836.41
2023-05-02T03:19:38.400Z,100831.50
2023-05-02T03:22:06.943Z,100836.03
2023-05-02T03:24:34.613Z,100842.38
2023-05-02T03:27:03.361Z,100837.16
2023-05-02T03:29:31.236Z,100838.63
2023-05-02T03:31:59.436Z,100857.06
2023-05-02T03:34:28.596Z,100857.94
2023-05-02T03:36:57.400Z,100867.94
2023-05-02T03:39:25.622Z,100863.81
2023-05-02T03:41:53.774Z,100866.41
2023-05-02T03:44:21.870Z,100872.78
2023-05-02T03:46:49.991Z,100880.22
2023-05-02T03:49:19.491Z,100889.00
2023-05-02T03:51:49.263Z,100880.22
2023-05-02T03:54:16.866Z,100875.84
2023-05-02T03:56:46.154Z,100881.34
2023-05-02T03:59:14.473Z,100882.19
2023-05-02T04:01:42.320Z,100895.94
2023-05-02T04:04:11.696Z,100898.38
2023-05-02T04:06:40.341Z,100901.97
2023-05-02T04:09:09.720Z,100900.91
2023-05-02T04:11:37.423Z,100901.16
2023-05-02T04:14:05.681Z,100914.59
2023-05-02T04:16:36.483Z,100922.09
2023-05-02T04:19:05.455Z,100917.94
2023-05-02T04:21:33.129Z,100912.97
2023-05-02T04:24:01.220Z,100915.44
2023-05-02T04:26:30.635Z,100920.69
2023-05-02T04:28:58.327Z,100922.38
2023-05-02T04:31:27.233Z,100928.66
2023-05-02T04:33:55.068Z,100934.50
2023-05-02T04:36:23.238Z,100928.22
2023-05-02T04:38:50.937Z,100943.59
2023-05-02T04:41:19.825Z,100952.91
2023-05-02T04:43:48.897Z,100950.72
2023-05-02T04:46:17.762Z,100953.22
2023-05-02T04:48:46.046Z,100955.41
2023-05-02T04:51:16.261Z,100951.00
2023-05-02T04:53:45.161Z,100949.56
2023-05-02T04:56:12.811Z,100945.41
2023-05-02T04:58:41.471Z,100958.91
2023-05-02T05:01:10.571Z,100962.25
2023-05-02T05:03:38.518Z,100968.50
2023-05-02T05:06:06.814Z,100970.44
2023-05-02T05:08:34.570Z,100980.66
2023-05-02T05:11:04.291Z,100983.06
2023-05-02T05:13:31.987Z,100989.44
2023-05-02T05:16:00.113Z,100980.63
2023-05-02T05:18:29.211Z,100997.69
2023-05-02T05:20:57.429Z,101001.78
2023-05-02T05:23:25.639Z,101012.50
2023-05-02T05:25:53.326Z,101004.53
2023-05-02T05:28:21.318Z,101009.75
2023-05-02T05:30:49.038Z,101012.47
2023-05-02T05:33:17.404Z,101016.31
2023-05-02T05:35:46.531Z,101018.25
2023-05-02T05:38:15.364Z,101021.53
2023-05-02T05:40:43.056Z,101023.19
2023-05-02T05:43:11.205Z,101026.75
2023-05-02T05:45:38.944Z,101035.19
2023-05-02T05:48:07.568Z,101044.88
2023-05-02T05:50:36.002Z,101044.31
2023-05-02T05:53:04.994Z,101048.72
2023-05-02T05:55:32.740Z,101050.59
2023-05-02T05:58:01.677Z,101047.59
2023-05-02T06:00:29.883Z,101056.09
2023-05-02T06:02:57.795Z,101054.44
2023-05-02T06:05:26.091Z,101054.19
2023-05-02T06:07:53.781Z,101058.00
2023-05-02T06:10:23.152Z,101070.34
2023-05-02T06:12:51.031Z,101074.22
2023-05-02T06:15:19.510Z,101080.50
2023-05-02T06:17:47.204Z,101084.88
2023-05-02T06:20:16.665Z,101086.53
2023-05-02T06:22:46.139Z,101087.34
2023-05-02T06:25:13.786Z,101086.47
2023-05-02T06:27:43.024Z,101093.91
2023-05-02T06:30:11.167Z,101092.75
2023-05-02T06:32:39.073Z,101104.81
2023-05-02T06:35:07.546Z,101112.28
2023-05-02T06:37:35.962Z,101111.19
2023-05-02T06:40:05.183Z,101113.94
2023-05-02T06:42:32.874Z,101122.75
2023-05-02T06:45:01.950Z,101124.94
2023-05-02T06:47:30.062Z,101126.63
2023-05-02T06:49:57.881Z,101132.09
2023-05-02T06:52:26.021Z,101133.78
2023-05-02T06:54:53.662Z,101136.53
2023-05-02T06:57:21.383Z,101136.00
2023-05-02T06:59:50.230Z,101148.94
2023-05-02T07:02:19.795Z,101148.06
2023-05-02T07:04:47.530Z,101151.59
2023-05-02T07:07:19.302Z,101152.94
2023-05-02T07:09:47.111Z,101161.78
2023-05-02T07:12:15.332Z,101165.03
2023-05-02T07:14:43.299Z,101180.75
2023-05-02T07:17:11.459Z,101182.13
2023-05-02T07:19:41.380Z,101181.34
2023-05-02T07:22:10.397Z,101189.88
2023-05-02T07:24:41.284Z,101187.13
2023-05-02T07:27:09.772Z,101188.44
2023-05-02T07:29:38.155Z,101197.19
2023-05-02T07:32:06.420Z,101198.34
2023-05-02T07:34:34.574Z,101198.34
2023-05-02T07:37:03.516Z,101197.19
2023-05-02T07:39:32.402Z,101202.69
2023-05-02T07:42:00.492Z,101201.75
2023-05-02T07:44:28.604Z,101201.22
2023-05-02T07:46:56.471Z,101208.66
2023-05-02T07:49:24.767Z,101205.56
2023-05-02T07:51:52.398Z,101210.25
2023-05-02T07:54:23.453Z,101225.28
2023-05-02T07:56:51.216Z,101222.03
2023-05-02T07:59:19.959Z,101224.56
2023-05-02T08:01:47.740Z,101219.88
2023-05-02T08:04:16.389Z,101221.25
2023-05-02T08:06:45.534Z,101228.16
2023-05-02T08:09:13.928Z,101234.72
2023-05-02T08:11:43.468Z,101236.09
2023-05-02T08:14:11.564Z,101242.16
2023-05-02T08:16:39.277Z,101245.75
2023-05-02T08:19:08.152Z,101238.91
2023-05-02T08:21:36.440Z,101245.53
2023-05-02T08:24:04.710Z,101244.44
2023-05-02T08:26:32.310Z,101245.50
2023-05-02T08:29:01.986Z,101251.22
2023-05-02T08:31:29.661Z,101258.94
2023-05-02T08:33:57.778Z,101263.56
2023-05-02T08:36:26.105Z,101262.19
2023-05-02T08:38:53.773Z,101258.06
2023-05-02T08:41:22.190Z,101269.81
2023-05-02T08:43:50.330Z,101271.47
2023-05-02T08:46:19.482Z,101265.53
2023-05-02T08:48:49.340Z,101273.25
2023-05-02T08:53:48.422Z,101288.69
2023-05-02T08:56:16.111Z,101291.97
2023-05-02T08:58:43.772Z,101298.09
2023-05-02T09:01:15.670Z,101293.69
2023-05-02T09:03:46.700Z,101308.34
2023-05-02T09:06:17.147Z,101304.78
2023-05-02T09:08:45.599Z,101313.59
2023-05-02T09:11:14.342Z,101313.03
2023-05-02T09:13:43.670Z,101318.00
2023-05-02T09:16:12.546Z,101321.47
2023-05-02T09:18:41.889Z,101322.88
2023-05-02T09:21:12.981Z,101318.19
2023-05-02T09:23:42.730Z,101332.25
2023-05-02T09:26:18.732Z,101341.59
2023-05-02T09:28:48.000Z,101342.09
2023-05-02T09:31:26.794Z,101335.16
2023-05-02T09:34:10.040Z,101340.03
2023-05-02T09:36:43.080Z,101346.94
2023-05-02T09:39:13.388Z,101347.78
2023-05-02T09:41:41.695Z,101347.22
2023-05-02T09:44:12.990Z,101344.19
2023-05-02T09:46:41.895Z,101349.06
2023-05-02T09:49:10.164Z,101348.84
2023-05-02T09:51:38.331Z,101341.44
2023-05-02T09:54:08.167Z,101356.13
2023-05-02T09:56:53.083Z,101354.19
2023-05-02T09:59:21.210Z,101358.91
2023-05-02T10:01:56.982Z,101363.09
2023-05-02T10:04:27.335Z,101363.34
2023-05-02T10:06:56.270Z,101363.94
2023-05-02T10:09:27.888Z,101362.28
2023-05-02T10:11:57.838Z,101367.50
2023-05-02T10:14:29.734Z,101373.50
2023-05-02T10:17:02.501Z,101375.16
2023-05-02T10:19:35.651Z,101377.25
2023-05-02T10:22:04.802Z,101374.25
2023-05-02T10:24:35.108Z,101384.72
2023-05-02T10:27:05.930Z,101392.16
2023-05-02T10:29:34.812Z,101385.00
2023-05-02T10:32:06.056Z,101383.88
2023-05-02T10:34:34.436Z,101382.50
2023-05-02T10:37:02.906Z,101393.97
2023-05-02T10:39:31.343Z,101397.56
2023-05-02T10:42:03.284Z,101404.81
2023-05-02T10:44:35.282Z,101409.00
2023-05-02T10:47:19.176Z,101410.13
2023-05-02T10:49:54.338Z,101407.09
2023-05-02T10:52:30.475Z,101417.56
2023-05-02T10:55:17.807Z,101419.19
2023-05-02T10:58:28.311Z,101421.69
2023-05-02T11:01:43.186Z,101436.81
2023-05-02T11:04:11.892Z,101435.91
2023-05-02T11:07:14.795Z,101445.00
2023-05-02T11:09:42.519Z,101459.63
2023-05-02T11:12:10.602Z,101458.53
2023-05-02T11:14:49.601Z,101458.00
2023-05-02T11:17:21.841Z,101475.63
2023-05-02T11:20:29.130Z,101480.34
2023-05-02T11:22:58.980Z,101480.91
2023-05-02T11:25:34.144Z,101489.22
2023-05-02T11:28:02.727Z,101500.81
2023-05-02T11:30:41.614Z,101507.97
2023-05-02T11:33:17.767Z,101512.69
2023-05-02T11:35:47.162Z,101523.97
2023-05-02T11:38:17.146Z,101522.59
2023-05-02T11:43:39.671Z,101524.81
2023-05-02T11:46:07.854Z,101526.44
2023-05-02T11:48:37.024Z,101530.00
2023-05-02T11:51:07.420Z,101532.22
2023-05-02T11:53:35.067Z,101536.59
2023-05-02T11:56:04.928Z,101547.31
2023-05-02T11:58:34.133Z,101544.34
2023-05-02T12:01:15.455Z,101548.75
2023-05-02T12:03:45.581Z,101555.91
2023-05-02T12:06:15.946Z,101553.44
2023-05-02T12:08:45.482Z,101551.81
2023-05-02T12:11:15.362Z,101560.31
2023-05-02T12:13:47.637Z,101558.41
2023-05-02T12:16:15.784Z,101568.31
2023-05-02T12:18:46.340Z,101581.28
2023-05-02T12:21:14.279Z,101579.06
2023-05-02T12:23:43.292Z,101573.53
2023-05-02T12:26:21.899Z,101586.22
2023-05-02T12:28:52.521Z,101589.25
2023-05-02T12:31:20.749Z,101591.47
2023-05-02T12:33:52.346Z,101592.53
2023-05-02T12:36:20.934Z,101588.41
2023-05-02T12:38:53.806Z,101595.59
2023-05-02T12:41:33.436Z,101594.19
2023-05-02T12:44:02.008Z,101591.72
2023-05-02T12:46:30.067Z,101593.94
2023-05-02T12:49:07.062Z,101587.31
2023-05-02T12:51:35.049Z,101590.34
2023-05-02T12:54:03.002Z,101596.41
2023-05-02T12:56:32.997Z,101594.19
2023-05-02T12:59:04.840Z,101595.84
2023-05-02T13:01:35.809Z,101603.03
2023-05-02T13:04:05.709Z,101604.94
2023-05-02T13:06:34.030Z,101609.09
2023-05-02T13:09:02.156Z,101613.19
2023-05-02T13:11:29.829Z,101615.38
2023-05-02T13:13:57.842Z,101632.94
2023-05-02T13:16:25.933Z,101629.16
2023-05-02T13:18:53.878Z,101630.56
2023-05-02T13:21:23.987Z,101631.13
2023-05-02T13:23:52.227Z,101633.81
2023-05-02T13:26:20.277Z,101639.34
2023-05-02T13:28:48.372Z,101645.94
2023-05-02T13:31:16.123Z,101646.47
2023-05-02T13:33:44.236Z,101650.84
2023-05-02T13:36:11.876Z,101658.03
2023-05-02T13:38:41.013Z,101663.03
2023-05-02T13:41:09.349Z,101661.13
2023-05-02T13:43:37.170Z,101654.22
2023-05-02T13:46:05.000Z,101658.84
2023-05-02T13:48:33.770Z,101661.00
2023-05-02T13:51:02.074Z,101663.56
2023-05-02T13:53:30.303Z,101673.81
2023-05-02T13:55:59.329Z,101666.41
2023-05-02T13:58:26.927Z,101667.00
2023-05-02T14:00:55.017Z,101677.19
2023-05-02T14:03:22.720Z,101683.75
2023-05-02T14:05:50.389Z,101681.31
2023-05-02T14:08:20.266Z,101678.53
2023-05-02T14:10:47.914Z,101693.16
2023-05-02T14:13:16.935Z,101690.66
2023-05-02T14:15:44.984Z,101700.31
2023-05-02T14:18:12.747Z,101699.97
2023-05-02T14:20:40.725Z,101698.38
2023-05-02T14:23:08.403Z,101695.06
2023-05-02T14:25:36.783Z,101697.28
2023-05-02T14:28:06.674Z,101717.41
2023-05-02T14:30:35.884Z,101705.28
2023-05-02T14:33:03.626Z,101715.19
2023-05-02T14:35:31.775Z,101723.75
2023-05-02T14:37:59.457Z,101723.19
2023-05-02T14:40:27.391Z,101717.13
2023-05-02T14:42:56.105Z,101724.03
2023-05-02T14:45:23.785Z,101725.13
2023-05-02T14:47:53.476Z,101737.00
2023-05-02T14:50:21.591Z,101742.22
2023-05-02T14:52:49.305Z,101737.75
2023-05-02T14:55:17.482Z,101732.53
2023-05-02T14:57:45.698Z,101740.75
2023-05-02T15:00:14.651Z,101743.25
2023-05-02T15:02:43.541Z,101754.78
2023-05-02T15:05:13.054Z,101758.63
2023-05-02T15:07:41.168Z,101753.41
2023-05-02T15:10:10.311Z,101760.69
2023-05-02T15:12:38.451Z,101761.47
2023-05-02T15:15:08.985Z,101755.97
2023-05-02T15:17:36.715Z,101760.56
2023-05-02T15:20:05.491Z,101767.09
2023-05-02T15:22:35.861Z,101772.63
2023-05-02T15:25:05.367Z,101778.41
2023-05-02T15:27:33.285Z,101769.88
2023-05-02T15:30:03.589Z,101781.75
2023-05-02T15:32:31.341Z,101772.38
2023-05-02T15:34:59.091Z,101779.09
2023-05-02T15:37:27.211Z,101781.78
2023-05-02T15:39:56.348Z,101784.84
2023-05-02T15:42:24.996Z,101784.72
2023-05-02T15:44:53.909Z,101783.19
2023-05-02T15:47:22.610Z,101794.69
2023-05-02T15:49:53.704Z,101786.25
2023-05-02T15:52:22.756Z,101795.88
2023-05-02T15:54:51.506Z,101801.31
2023-05-02T15:57:21.150Z,101794.69
2023-05-02T15:59:49.236Z,101795.81
2023-05-02T16:02:16.931Z,101788.88
2023-05-02T16:04:44.606Z,101793.03
2023-05-02T16:07:14.326Z,101795.28
2023-05-02T16:09:42.509Z,101794.19
2023-05-02T16:12:10.647Z,101794.22
2023-05-02T16:14:40.044Z,101793.09
2023-05-02T16:17:07.754Z,101795.34
2023-05-02T16:19:35.403Z,101797.31
2023-05-02T16:22:03.532Z,101807.59
2023-05-02T16:24:31.161Z,101809.31
2023-05-02T16:26:58.938Z,101814.03
2023-05-02T16:29:27.850Z,101808.25
2023-05-02T16:31:57.031Z,101804.13
2023-05-02T16:34:24.924Z,101799.59
2023-05-02T16:36:53.407Z,101801.84
2023-05-02T16:39:20.991Z,101801.59
2023-05-02T16:41:49.292Z,101811.47
2023-05-02T16:44:18.053Z,101797.69
2023-05-02T16:46:46.142Z,101803.72
2023-05-02T16:49:15.848Z,101802.81
2023-05-02T16:51:43.519Z,101795.19
2023-05-02T16:54:11.688Z,101802.34
2023-05-02T16:56:41.327Z,101800.69
2023-05-02T16:59:10.241Z,101800.25
2023-05-02T17:01:38.047Z,101803.78
2023-05-02T17:04:06.470Z,101807.63
2023-05-02T17:06:35.620Z,101810.13
2023-05-02T17:09:04.094Z,101816.38
2023-05-02T17:11:31.794Z,101817.72
2023-05-02T17:13:59.920Z,101821.53
2023-05-02T17:16:27.595Z,101815.13
2023-05-02T17:18:55.691Z,101821.84
2023-05-02T17:21:23.525Z,101813.34
2023-05-02T17:23:53.660Z,101807.00
2023-05-02T17:26:22.063Z,101812.59
2023-05-02T17:28:53.754Z,101819.41
2023-05-02T17:31:22.000Z,101827.38
2023-05-02T17:33:49.896Z,101818.06
2023-05-02T17:36:18.068Z,101828.47
2023-05-02T17:38:45.795Z,101832.88
2023-05-02T17:41:15.751Z,101829.94
2023-05-02T17:43:43.534Z,101839.44
2023-05-02T17:46:12.637Z,101834.50
2023-05-02T17:48:43.815Z,101837.44
2023-05-02T17:51:11.753Z,101832.22
2023-05-02T17:53:39.908Z,101833.31
2023-05-02T17:56:08.155Z,101832.16
2023-05-02T17:58:37.901Z,101840.91
2023-05-02T18:01:09.530Z,101828.22
2023-05-02T18:03:37.567Z,101841.06
2023-05-02T18:06:06.574Z,101844.22
2023-05-02T18:08:34.858Z,101845.56
2023-05-02T18:11:03.210Z,101840.00
2023-05-02T18:13:31.533Z,101845.22
2023-05-02T18:16:01.903Z,101846.06
2023-05-02T18:18:29.982Z,101850.13
2023-05-02T18:20:57.649Z,101850.66
2023-05-02T18:23:25.387Z,101856.59
2023-05-02T18:25:54.248Z,101852.63
2023-05-02T18:28:21.964Z,101846.88
2023-05-02T18:30:49.659Z,101846.94
2023-05-02T18:33:19.231Z,101848.03
2023-05-02T18:35:47.931Z,101851.56
2023-05-02T18:38:16.113Z,101857.63
2023-05-02T18:40:44.381Z,101859.28
2023-05-02T18:43:12.051Z,101859.81
2023-05-02T18:48:27.785Z,101862.84
2023-05-02T18:50:57.029Z,101858.97
2023-05-02T18:53:26.413Z,101857.47
2023-05-02T18:55:54.379Z,101853.59
2023-05-02T18:58:22.907Z,101862.44
2023-05-02T19:00:50.995Z,101863.53
2023-05-02T19:03:18.991Z,101871.72
2023-05-02T19:05:51.202Z,101873.03
2023-05-02T19:08:19.026Z,101870.81
2023-05-02T19:10:46.691Z,101879.03
2023-05-02T19:13:14.917Z,101880.13
2023-05-02T19:15:43.101Z,101878.41
2023-05-02T19:18:10.832Z,101876.16
2023-05-02T19:20:39.091Z,101883.13
2023-05-02T19:23:19.785Z,101886.69
2023-05-02T19:25:49.661Z,101896.19
2023-05-02T19:28:17.321Z,101899.81
2023-05-02T19:30:45.498Z,101903.97
2023-05-02T19:33:13.813Z,101913.34
2023-05-02T19:35:41.599Z,101906.78
2023-05-02T19:38:10.641Z,101915.09
2023-05-02T19:40:38.716Z,101915.09
2023-05-02T19:43:06.355Z,101921.66
2023-05-02T19:45:34.094Z,101921.94
2023-05-02T19:48:02.943Z,101921.59
2023-05-02T19:50:30.609Z,101924.69
2023-05-02T19:52:58.621Z,101923.03
2023-05-02T19:55:27.665Z,101922.34
2023-05-02T19:57:55.304Z,101926.75
2023-05-02T20:00:23.541Z,101921.59
2023-05-02T20:02:51.741Z,101922.44
2023-05-02T20:05:19.730Z,101920.44
2023-05-02T20:07:48.216Z,101927.59
2023-05-02T20:10:18.219Z,101933.09
2023-05-02T20:12:47.688Z,101937.72
2023-05-02T20:15:16.673Z,101931.50
2023-05-02T20:17:44.453Z,101936.56
2023-05-02T20:20:13.666Z,101941.97
2023-05-02T20:22:41.374Z,101941.03
2023-05-02T20:25:11.443Z,101946.53
2023-05-02T20:27:40.549Z,101953.34
2023-05-02T20:30:10.482Z,101953.69
2023-05-02T20:32:38.245Z,101955.34
2023-05-02T20:35:06.815Z,101961.09
2023-05-02T20:37:34.553Z,101961.94
2023-05-02T20:40:02.740Z,101962.75
2023-05-02T20:42:30.564Z,101969.91
2023-05-02T20:45:00.592Z,101972.16
2023-05-02T20:47:31.321Z,101973.25
2023-05-02T20:49:59.041Z,101972.75
2023-05-02T20:52:27.189Z,101976.56
2023-05-02T20:54:55.462Z,101984.91
2023-05-02T20:57:24.584Z,101980.25
2023-05-02T20:59:52.273Z,101985.16
2023-05-02T21:02:19.991Z,101994.47
2023-05-02T21:04:49.316Z,101991.59
2023-05-02T21:07:16.974Z,101996.31
2023-05-02T21:09:45.729Z,102007.28
2023-05-02T21:12:13.923Z,102003.47
2023-05-02T21:14:41.606Z,102004.25
2023-05-02T21:17:09.717Z,102006.88
2023-05-02T21:19:37.660Z,102007.47
2023-05-02T21:22:07.099Z,102004.31
2023-05-02T21:24:35.092Z,102008.97
2023-05-02T21:27:02.954Z,101996.31
2023-05-02T21:29:31.605Z,102006.16
2023-05-02T21:31:59.258Z,102005.16
2023-05-02T21:34:27.433Z,102005.41
2023-05-02T21:36:55.087Z,102007.22
2023-05-02T21:39:24.154Z,102004.81
2023-05-02T21:41:52.179Z,102007.31
2023-05-02T21:44:19.826Z,102005.81
2023-05-02T21:46:48.163Z,102006.66
2023-05-02T21:49:16.699Z,102004.31
2023-05-02T21:51:44.992Z,102005.16
2023-05-02T21:54:12.631Z,102008.63
2023-05-02T21:56:41.643Z,102004.56
2023-05-02T21:59:09.758Z,102010.75
2023-05-02T22:01:37.380Z,102008.88
2023-05-02T22:04:05.388Z,102013.50
2023-05-02T22:06:34.656Z,102017.47
2023-05-02T22:09:02.367Z,102016.25
2023-05-02T22:11:31.844Z,102015.31
2023-05-02T22:14:00.851Z,102016.66
2023-05-02T22:16:28.573Z,102016.91
2023-05-02T22:18:58.127Z,102013.81
2023-05-02T22:21:25.925Z,102017.41
2023-05-02T22:23:53.998Z,102024.19
2023-05-02T22:26:22.738Z,102021.22
2023-05-02T22:28:50.816Z,102019.06
2023-05-02T22:31:21.423Z,102027.78
2023-05-02T22:33:49.898Z,102030.44
2023-05-02T22:36:18.596Z,102034.28
2023-05-02T22:38:46.734Z,102036.75
2023-05-02T22:41:14.450Z,102040.94
2023-05-02T22:43:42.509Z,102047.50
2023-05-02T22:46:10.230Z,102044.72
2023-05-02T22:48:40.349Z,102041.72
2023-05-02T22:51:08.134Z,102047.19
2023-05-02T22:53:36.296Z,102052.09
2023-05-02T22:56:04.732Z,102045.75
2023-05-02T22:58:32.643Z,102062.97
2023-05-02T23:01:00.662Z,102060.13
2023-05-02T23:03:28.436Z,102052.72
2023-05-02T23:05:58.680Z,102059.97
2023-05-02T23:08:26.419Z,102060.22
2023-05-02T23:10:54.087Z,102054.66
2023-05-02T23:13:22.092Z,102057.03
2023-05-02T23:15:54.399Z,102065.00
2023-05-02T23:18:22.528Z,102066.81
2023-05-02T23:20:50.218Z,102070.16
2023-05-02T23:23:19.264Z,102065.38
2023-05-02T23:25:47.485Z,102067.91
2023-05-02T23:28:15.146Z,102074.06
2023-05-02T23:30:43.153Z,102074.19
2023-05-02T23:33:12.198Z,102074.09
2023-05-02T23:35:40.322Z,102072.53
2023-05-02T23:38:08.725Z,102076.13
2023-05-02T23:40:38.102Z,102074.34
2023-05-02T23:43:07.353Z,102071.38
2023-05-02T23:45:35.369Z,102069.94
2023-05-02T23:48:03.170Z,102069.47
2023-05-02T23:50:32.867Z,102073.06
2023-05-02T23:53:01.142Z,102068.28
2023-05-02T23:55:29.346Z,102067.47
2023-05-02T23:57:58.898Z,102070.81
